Avon, CO (81620)

10:15 AM MDT del 05 Settembre 2015 (GMT -0600)
Beaver Creek | | Change Station
CLOSE
Current Station
Stazione meteo personale
Location: Avon, CO
Altitudine: 8156 ft
Stazioni meteo nelle vicinanze

Alt. 8156 ft 39.61 °N, 106.52 °W | Updated 14 minutes ago

Molto nuvoloso
Molto nuvoloso
55.6 °F
Sembra 55.6 °F
N
4.2
Vento Variabile Vento da NNE

Oggi
Massima -- | Minima -- °F
--% Possibilità di precip.
Ieri
Massima -- | Minima -- °F
Precip. -- in
6:37 AM 7:31 PM
Gobba a levante, 47% visible
Pressione 30.22 in
Visibilità 10.0 miglia
Nuvole Nubi sparse 11000 ft
Punto di rugiada 48 °F
Umidità 77%
Piovosità 0.05 in
Spessore del manto nevoso Non disponibile.
Raggi UV 4 fuori da 12
Polline 10.30 fuori da 12
Qualità dell'aria Non disponibile.
Flu Activity Non disponibile.
METAR KEGE 051550Z 00000KT 10SM SCT110 16/10 A3022
Pressione 30.22 in
Visibilità 10.0 miglia
Nuvole Nubi sparse 11000 ft
Punto di rugiada 48 °F
Umidità 77%
Piovosità 0.05 in
Spessore del manto nevoso Non disponibile.
Raggi UV 4 fuori da 12
Polline 10.30 fuori da 12
Qualità dell'aria Non disponibile.
Flu Activity Non disponibile.
METAR KEGE 051550Z 00000KT 10SM SCT110 16/10 A3022

10-Day Weather Forecast

×

Almanac

Astronomia

Sep. 05, 2015 Alba Tramonto
Ora attuale
Crepuscolo civile
Crepuscolo nautico
Crepuscolo astronomico
Luna
Estensione della luce visibile
Lunghezza del giorno
Tomorrow will be .
, % of the Moon is Illuminated

Gli estremi di oggi

State Highs State Lows

Community

WunderPhotos

Upload Photos

1,852,495 foto caricate!

WunderBlogs® & News

Nearby

Qualità dell'aria

  Qualità dell'aria Indice AQ Inquinante
Not available.

Profondità neve

Stazione Profondità Altitudine

Attività sismica

Città  Distanza Mag. Data & Ora
Minimo Magnitudo Mostrato è 2.5.

Temperature delle acque costiere

Località Temperatura

Stations

Stazioni meteo nelle vicinanze

Ubicazione della stazione Temp. Raffreddamento del vento Punto di rugiada Umidità Vento Precip. Alt. Aggiornato Tipo